createdAt,value
2023-05-13T00:02:07.709Z,4.40
2023-05-13T00:05:09.323Z,4.07
2023-05-13T00:08:11.164Z,3.70
2023-05-13T00:11:12.746Z,3.77
2023-05-13T00:14:14.677Z,4.10
2023-05-13T00:17:16.204Z,3.88
2023-05-13T00:20:17.711Z,4.18
2023-05-13T00:23:19.050Z,3.92
2023-05-13T00:26:21.088Z,4.03
2023-05-13T00:29:23.020Z,4.20
2023-05-13T00:32:24.334Z,4.30
2023-05-13T00:35:25.847Z,4.13
2023-05-13T00:38:27.207Z,3.72
2023-05-13T00:41:28.604Z,3.90
2023-05-13T00:44:30.677Z,4.20
2023-05-13T00:47:33.053Z,4.85
2023-05-13T00:50:34.392Z,4.32
2023-05-13T00:53:37.022Z,4.15
2023-05-13T00:56:38.630Z,4.40
2023-05-13T00:59:40.743Z,4.50
2023-05-13T01:02:50.393Z,4.05
2023-05-13T01:06:00.024Z,4.53
2023-05-13T01:09:07.520Z,4.25
2023-05-13T01:12:12.792Z,4.00
2023-05-13T01:15:20.717Z,4.10
2023-05-13T01:18:28.233Z,4.90
2023-05-13T01:21:35.181Z,4.55
2023-05-13T01:24:36.613Z,4.07
2023-05-13T01:27:38.207Z,4.53
2023-05-13T01:30:39.787Z,4.30
2023-05-13T01:33:42.586Z,4.68
2023-05-13T01:36:44.662Z,4.40
2023-05-13T01:39:47.169Z,4.60
2023-05-13T01:42:48.626Z,4.33
2023-05-13T01:45:49.947Z,4.75
2023-05-13T01:48:51.480Z,4.63
2023-05-13T01:51:53.506Z,4.53
2023-05-13T01:54:54.939Z,4.20
2023-05-13T01:57:56.228Z,4.17
2023-05-13T02:00:57.767Z,4.60
2023-05-13T02:03:59.378Z,4.63
2023-05-13T02:07:01.550Z,4.53
2023-05-13T02:10:03.259Z,4.68
2023-05-13T02:13:04.575Z,4.60
2023-05-13T02:16:06.276Z,5.05
2023-05-13T02:19:07.880Z,5.20
2023-05-13T02:22:09.955Z,4.70
2023-05-13T02:25:11.406Z,4.80
2023-05-13T02:28:12.674Z,5.10
2023-05-13T02:31:14.125Z,4.80
2023-05-13T02:34:15.543Z,4.80
2023-05-13T02:37:17.529Z,5.10
2023-05-13T02:40:19.290Z,4.82
2023-05-13T02:43:20.929Z,4.83
2023-05-13T02:46:22.446Z,4.53
2023-05-13T02:49:23.890Z,5.07
2023-05-13T02:52:25.888Z,5.05
2023-05-13T02:55:27.392Z,5.43
2023-05-13T02:58:28.712Z,5.37
2023-05-13T03:01:30.087Z,5.13
2023-05-13T03:04:31.455Z,4.22
2023-05-13T03:07:34.068Z,5.30
2023-05-13T03:10:35.502Z,5.00
2023-05-13T03:13:36.796Z,5.30
2023-05-13T03:16:38.304Z,5.03
2023-05-13T03:19:39.822Z,4.70
2023-05-13T03:22:42.114Z,4.95
2023-05-13T03:25:43.542Z,5.45
2023-05-13T03:28:44.908Z,5.03
2023-05-13T03:31:46.482Z,4.60
2023-05-13T03:34:47.810Z,5.38
2023-05-13T03:37:49.969Z,5.10
2023-05-13T03:40:51.412Z,5.07
2023-05-13T03:43:52.725Z,5.50
2023-05-13T03:46:54.322Z,5.20
2023-05-13T03:49:55.687Z,5.10
2023-05-13T03:52:57.754Z,4.72
2023-05-13T03:55:59.324Z,5.28
2023-05-13T03:59:00.620Z,4.87
2023-05-13T04:02:02.420Z,5.68
2023-05-13T04:05:05.393Z,5.28
2023-05-13T04:08:07.628Z,4.88
2023-05-13T04:11:09.026Z,4.70
2023-05-13T04:14:10.396Z,5.10
2023-05-13T04:17:12.013Z,4.22
2023-05-13T04:20:13.603Z,5.20
2023-05-13T04:23:15.696Z,5.00
2023-05-13T04:26:17.230Z,5.22
2023-05-13T04:29:18.524Z,5.03
2023-05-13T04:32:21.303Z,5.50
2023-05-13T04:35:22.791Z,5.60
2023-05-13T04:38:24.871Z,5.20
2023-05-13T04:41:26.225Z,5.65
2023-05-13T04:44:27.512Z,5.50
2023-05-13T04:47:28.978Z,4.40
2023-05-13T04:50:31.188Z,5.10
2023-05-13T04:53:34.101Z,4.65
2023-05-13T04:56:35.408Z,5.03
2023-05-13T04:59:36.845Z,5.33
2023-05-13T05:02:39.184Z,4.68
2023-05-13T05:05:40.545Z,5.03
2023-05-13T05:08:43.210Z,4.75
2023-05-13T05:11:44.479Z,5.10
2023-05-13T05:14:45.767Z,5.13
2023-05-13T05:17:47.139Z,4.35
2023-05-13T05:20:48.516Z,5.10
2023-05-13T05:23:50.471Z,4.90
2023-05-13T05:26:51.752Z,4.88
2023-05-13T05:29:53.222Z,5.00
2023-05-13T05:32:54.651Z,4.65
2023-05-13T05:35:55.969Z,4.72
2023-05-13T05:38:57.968Z,4.93
2023-05-13T05:41:59.285Z,4.88
2023-05-13T05:45:00.920Z,4.97
2023-05-13T05:48:02.276Z,5.28
2023-05-13T05:51:04.308Z,4.65
2023-05-13T05:54:06.398Z,3.92
2023-05-13T05:57:07.740Z,4.22
2023-05-13T06:00:10.089Z,4.50
2023-05-13T06:03:11.510Z,4.40
2023-05-13T06:06:13.055Z,4.50
2023-05-13T06:09:14.979Z,4.60
2023-05-13T06:12:16.265Z,4.25
2023-05-13T06:15:17.841Z,4.63
2023-05-13T06:18:19.135Z,4.45
2023-05-13T06:21:20.618Z,4.65
2023-05-13T06:24:22.621Z,4.40
2023-05-13T06:27:24.264Z,4.65
2023-05-13T06:30:25.550Z,4.40
2023-05-13T06:33:26.924Z,4.40
2023-05-13T06:36:28.312Z,5.13
2023-05-13T06:39:30.390Z,4.35
2023-05-13T06:42:31.697Z,4.00
2023-05-13T06:45:33.130Z,4.57
2023-05-13T06:48:34.420Z,4.20
2023-05-13T06:51:35.953Z,4.20
2023-05-13T06:54:37.917Z,4.20
2023-05-13T06:57:43.020Z,4.72
2023-05-13T07:00:45.925Z,4.60
2023-05-13T07:03:48.619Z,3.80
2023-05-13T07:06:50.937Z,3.92
2023-05-13T07:09:52.884Z,4.00
2023-05-13T07:12:54.193Z,3.80
2023-05-13T07:15:55.634Z,3.60
2023-05-13T07:18:57.060Z,3.90
2023-05-13T07:21:58.660Z,3.70
2023-05-13T07:25:00.870Z,3.60
2023-05-13T07:28:02.234Z,3.83
2023-05-13T07:31:04.792Z,3.50
2023-05-13T07:34:06.131Z,3.08
2023-05-13T07:37:07.680Z,3.47
2023-05-13T07:40:10.529Z,3.28
2023-05-13T07:43:13.260Z,3.70
2023-05-13T07:46:15.391Z,3.23
2023-05-13T07:49:16.678Z,3.13
2023-05-13T07:52:18.121Z,3.30
2023-05-13T07:55:20.849Z,3.03
2023-05-13T07:58:22.484Z,3.05
2023-05-13T08:01:23.811Z,2.80
2023-05-13T08:04:25.513Z,3.30
2023-05-13T08:07:28.333Z,2.90
2023-05-13T08:10:30.367Z,3.00
2023-05-13T08:13:31.830Z,3.10
2023-05-13T08:16:34.719Z,2.67
2023-05-13T08:19:36.122Z,2.65
2023-05-13T08:22:37.452Z,2.70
2023-05-13T08:25:39.421Z,3.25
2023-05-13T08:28:42.310Z,2.53
2023-05-13T08:31:45.215Z,2.83
2023-05-13T08:34:46.563Z,2.83
2023-05-13T08:37:48.066Z,3.00
2023-05-13T08:40:50.080Z,3.00
2023-05-13T08:43:53.972Z,3.05
2023-05-13T08:47:04.768Z,2.90
2023-05-13T08:50:06.940Z,2.90
2023-05-13T08:53:11.194Z,2.90
2023-05-13T08:56:13.240Z,2.88
2023-05-13T08:59:14.551Z,2.75
2023-05-13T09:02:16.065Z,2.83
2023-05-13T09:05:18.169Z,3.00
2023-05-13T09:08:19.754Z,3.30
2023-05-13T09:11:22.303Z,2.97
2023-05-13T09:14:30.493Z,3.17
2023-05-13T09:17:32.123Z,3.20
2023-05-13T09:20:34.377Z,2.70
2023-05-13T09:23:35.824Z,2.97
2023-05-13T09:26:38.728Z,3.08
2023-05-13T09:29:40.025Z,3.10
2023-05-13T09:32:42.304Z,3.30
2023-05-13T09:35:48.830Z,3.22
2023-05-13T09:38:52.695Z,3.50
2023-05-13T09:41:54.770Z,3.28
2023-05-13T09:44:56.220Z,3.30
2023-05-13T09:47:57.773Z,3.00
2023-05-13T09:50:59.600Z,2.90
2023-05-13T09:54:06.176Z,3.33
2023-05-13T09:57:08.211Z,2.83
2023-05-13T10:00:17.924Z,3.45
2023-05-13T10:03:22.923Z,3.30
2023-05-13T10:06:25.944Z,2.90
2023-05-13T10:09:28.599Z,3.33
2023-05-13T10:12:31.679Z,3.30
2023-05-13T10:15:33.923Z,3.17
2023-05-13T10:18:35.744Z,3.40
2023-05-13T10:21:38.017Z,3.15
2023-05-13T10:24:39.988Z,3.03
2023-05-13T10:27:42.477Z,3.00
2023-05-13T10:30:44.275Z,3.00
2023-05-13T10:33:45.768Z,2.90
2023-05-13T10:37:02.458Z,2.83
2023-05-13T10:40:22.340Z,3.10
2023-05-13T10:43:27.919Z,3.10
2023-05-13T10:46:29.430Z,3.08
2023-05-13T10:49:33.276Z,2.83
2023-05-13T10:52:47.188Z,2.83
2023-05-13T10:55:52.853Z,3.20
2023-05-13T10:58:59.386Z,3.15
2023-05-13T11:02:03.262Z,2.90
2023-05-13T11:05:05.218Z,3.10
2023-05-13T11:08:06.728Z,2.65
2023-05-13T11:11:32.683Z,3.20
2023-05-13T11:14:34.660Z,2.95
2023-05-13T11:17:36.951Z,2.70
2023-05-13T11:20:51.543Z,2.90
2023-05-13T11:23:57.262Z,2.53
2023-05-13T11:26:59.174Z,3.00
2023-05-13T11:30:06.414Z,2.80
2023-05-13T11:33:11.713Z,2.60
2023-05-13T11:36:13.120Z,2.50
2023-05-13T11:39:15.955Z,2.55
2023-05-13T11:42:17.494Z,2.70
2023-05-13T11:45:23.611Z,2.60
2023-05-13T11:48:25.703Z,2.60
2023-05-13T11:51:27.917Z,2.83
2023-05-13T11:54:29.571Z,2.83
2023-05-13T11:57:31.922Z,2.80
2023-05-13T12:00:34.943Z,2.40
2023-05-13T12:03:36.335Z,2.70
2023-05-13T12:06:44.273Z,2.90
2023-05-13T12:09:45.715Z,2.70
2023-05-13T12:12:47.545Z,3.17
2023-05-13T12:15:49.872Z,2.75
2023-05-13T12:18:56.355Z,2.70
2023-05-13T12:21:59.170Z,2.60
2023-05-13T12:25:02.851Z,2.80
2023-05-13T12:28:08.776Z,2.70
2023-05-13T12:31:16.504Z,3.03
2023-05-13T12:34:30.101Z,2.97
2023-05-13T12:37:31.511Z,2.90
2023-05-13T12:40:32.931Z,2.70
2023-05-13T12:43:34.314Z,2.67
2023-05-13T12:46:36.896Z,2.67
2023-05-13T12:49:51.366Z,2.95
2023-05-13T12:52:53.144Z,2.90
2023-05-13T12:55:54.570Z,2.70
2023-05-13T12:58:56.291Z,3.00
2023-05-13T13:01:58.346Z,3.25
2023-05-13T13:04:59.660Z,2.90
2023-05-13T13:08:01.604Z,3.03
2023-05-13T13:11:03.936Z,2.63
2023-05-13T13:14:05.233Z,3.20
2023-05-13T13:17:07.396Z,2.55
2023-05-13T13:20:09.061Z,2.70
2023-05-13T13:23:10.420Z,2.43
2023-05-13T13:26:11.736Z,2.55
2023-05-13T13:29:13.039Z,2.83
2023-05-13T13:32:15.216Z,3.38
2023-05-13T13:35:16.565Z,2.72
2023-05-13T13:38:17.963Z,2.80
2023-05-13T13:41:19.218Z,2.70
2023-05-13T13:44:20.642Z,3.13
2023-05-13T13:47:22.701Z,2.90
2023-05-13T13:50:24.220Z,2.72
2023-05-13T13:53:25.722Z,2.70
2023-05-13T13:56:27.033Z,2.85
2023-05-13T13:59:28.320Z,3.00
2023-05-13T14:02:30.483Z,2.70
2023-05-13T14:05:31.867Z,2.50
2023-05-13T14:08:33.303Z,2.77
2023-05-13T14:11:34.673Z,2.92
2023-05-13T14:14:35.961Z,2.75
2023-05-13T14:17:38.159Z,3.15
2023-05-13T14:20:39.455Z,2.45
2023-05-13T14:23:41.287Z,2.37
2023-05-13T14:26:42.587Z,2.92
2023-05-13T14:29:45.957Z,2.42
2023-05-13T14:32:48.058Z,2.70
2023-05-13T14:35:49.447Z,3.08
2023-05-13T14:38:50.863Z,2.97
2023-05-13T14:41:52.114Z,2.95
2023-05-13T14:44:53.458Z,2.88
2023-05-13T14:47:56.027Z,2.75
2023-05-13T14:50:57.406Z,3.30
2023-05-13T14:53:58.819Z,3.23
2023-05-13T14:57:00.137Z,3.63
2023-05-13T15:00:01.493Z,2.97
2023-05-13T15:03:03.739Z,3.55
2023-05-13T15:06:06.000Z,3.20
2023-05-13T15:09:07.287Z,3.30
2023-05-13T15:12:09.433Z,3.20
2023-05-13T15:15:11.608Z,3.50
2023-05-13T15:18:13.993Z,3.03
2023-05-13T15:21:15.440Z,2.83
2023-05-13T15:24:16.875Z,3.90
2023-05-13T15:27:18.749Z,4.05
2023-05-13T15:30:20.250Z,3.90
2023-05-13T15:33:22.494Z,3.22
2023-05-13T15:36:23.930Z,4.07
2023-05-13T15:39:25.276Z,3.90
2023-05-13T15:42:26.900Z,3.17
2023-05-13T15:45:28.653Z,3.33
2023-05-13T15:48:30.664Z,3.00
2023-05-13T15:51:32.436Z,3.30
2023-05-13T15:54:33.853Z,3.40
2023-05-13T15:57:35.138Z,3.22
2023-05-13T16:00:36.646Z,3.47
2023-05-13T16:03:38.846Z,3.53
2023-05-13T16:06:40.358Z,3.22
2023-05-13T16:09:41.807Z,3.37
2023-05-13T16:12:43.092Z,3.45
2023-05-13T16:15:44.451Z,3.58
2023-05-13T16:18:46.488Z,3.60
2023-05-13T16:21:47.980Z,4.03
2023-05-13T16:24:49.419Z,3.60
2023-05-13T16:27:50.638Z,4.07
2023-05-13T16:30:54.092Z,4.55
2023-05-13T16:33:56.557Z,4.60
2023-05-13T16:36:59.044Z,4.82
2023-05-13T16:40:00.737Z,3.63
2023-05-13T16:43:03.848Z,4.63
2023-05-13T16:46:05.542Z,4.55
2023-05-13T16:49:07.530Z,4.60
2023-05-13T16:52:08.999Z,5.10
2023-05-13T16:55:10.443Z,4.70
2023-05-13T16:58:14.737Z,4.35
2023-05-13T17:01:16.381Z,3.97
2023-05-13T17:04:19.275Z,4.00
2023-05-13T17:07:20.740Z,4.00
2023-05-13T17:10:22.542Z,3.63
2023-05-13T17:13:24.004Z,4.07
2023-05-13T17:16:25.437Z,3.95
2023-05-13T17:19:28.776Z,3.70
2023-05-13T17:22:30.039Z,3.33
2023-05-13T17:25:31.447Z,3.70
2023-05-13T17:28:33.161Z,3.63
2023-05-13T17:31:34.534Z,3.90
2023-05-13T17:34:36.484Z,3.65
2023-05-13T17:37:37.852Z,3.88
2023-05-13T17:40:39.134Z,4.10
2023-05-13T17:43:40.433Z,3.65
2023-05-13T17:46:41.818Z,3.50
2023-05-13T17:49:43.765Z,3.55
2023-05-13T17:52:45.312Z,3.78
2023-05-13T17:55:47.721Z,3.70
2023-05-13T17:58:48.996Z,3.85
2023-05-13T18:01:50.491Z,4.10
2023-05-13T18:04:52.584Z,3.92
2023-05-13T18:07:53.937Z,4.10
2023-05-13T18:10:55.378Z,3.67
2023-05-13T18:13:56.690Z,3.63
2023-05-13T18:16:58.080Z,3.60
2023-05-13T18:19:59.978Z,3.90
2023-05-13T18:23:01.310Z,3.58
2023-05-13T18:26:02.992Z,3.67
2023-05-13T18:29:04.417Z,3.80
2023-05-13T18:32:06.001Z,4.23
2023-05-13T18:35:08.628Z,3.63
2023-05-13T18:38:09.939Z,4.45
2023-05-13T18:41:11.260Z,7.90
2023-05-13T18:44:12.688Z,3.80
2023-05-13T18:47:14.109Z,3.70
2023-05-13T18:50:16.011Z,3.40
2023-05-13T18:53:17.397Z,3.30
2023-05-13T18:56:18.790Z,3.10
2023-05-13T18:59:20.238Z,3.53
2023-05-13T19:02:21.680Z,3.30
2023-05-13T19:05:23.851Z,3.20
2023-05-13T19:08:25.269Z,3.55
2023-05-13T19:11:26.629Z,3.40
2023-05-13T19:14:28.091Z,4.00
2023-05-13T19:17:30.343Z,4.20
2023-05-13T19:20:32.378Z,4.15
2023-05-13T19:23:33.772Z,4.25
2023-05-13T19:26:35.273Z,3.90
2023-05-13T19:29:36.758Z,4.07
2023-05-13T19:32:38.071Z,3.73
2023-05-13T19:35:40.465Z,3.53
2023-05-13T19:38:41.888Z,3.65
2023-05-13T19:41:43.164Z,3.65
2023-05-13T19:44:45.531Z,3.90
2023-05-13T19:47:47.168Z,4.00
2023-05-13T19:50:52.625Z,4.47
2023-05-13T19:53:54.038Z,4.05
2023-05-13T19:56:55.448Z,3.95
2023-05-13T19:59:58.148Z,3.67
2023-05-13T20:02:59.904Z,3.53
2023-05-13T20:06:02.378Z,3.83
2023-05-13T20:09:04.038Z,4.18
2023-05-13T20:12:05.475Z,3.97
2023-05-13T20:15:07.392Z,4.03
2023-05-13T20:18:08.761Z,4.17
2023-05-13T20:21:10.992Z,4.50
2023-05-13T20:24:12.680Z,4.05
2023-05-13T20:27:15.230Z,3.80
2023-05-13T20:30:16.719Z,4.57
2023-05-13T20:33:17.988Z,4.20
2023-05-13T20:36:20.058Z,4.40
2023-05-13T20:39:21.527Z,4.40
2023-05-13T20:42:23.426Z,4.03
2023-05-13T20:45:25.095Z,4.15
2023-05-13T20:48:27.078Z,3.80
2023-05-13T20:51:29.157Z,4.20
2023-05-13T20:54:30.589Z,4.28
2023-05-13T20:57:31.877Z,4.13
2023-05-13T21:00:33.298Z,4.18
2023-05-13T21:03:34.713Z,3.67
2023-05-13T21:06:36.889Z,4.05
2023-05-13T21:09:38.814Z,4.50
2023-05-13T21:12:40.455Z,4.40
2023-05-13T21:15:41.922Z,4.40
2023-05-13T21:18:43.279Z,4.00
2023-05-13T21:21:45.378Z,4.45
2023-05-13T21:24:46.821Z,4.20
2023-05-13T21:27:48.609Z,4.38
2023-05-13T21:30:50.010Z,4.57
2023-05-13T21:33:51.432Z,4.47
2023-05-13T21:36:53.422Z,4.65
2023-05-13T21:39:54.852Z,4.47
2023-05-13T21:42:56.148Z,4.57
2023-05-13T21:45:57.602Z,4.17
2023-05-13T21:48:59.651Z,4.45
2023-05-13T21:52:01.828Z,4.72
2023-05-13T21:55:03.493Z,4.20
2023-05-13T21:58:04.807Z,4.85
2023-05-13T22:01:06.174Z,4.67
2023-05-13T22:04:07.996Z,4.60
2023-05-13T22:07:10.107Z,4.97
2023-05-13T22:10:11.659Z,4.85
2023-05-13T22:13:13.086Z,5.60
2023-05-13T22:16:14.681Z,4.67
2023-05-13T22:19:16.176Z,4.95
2023-05-13T22:22:18.431Z,5.30
2023-05-13T22:25:20.382Z,5.50
2023-05-13T22:28:21.797Z,5.20
2023-05-13T22:31:23.339Z,5.53
2023-05-13T22:34:25.484Z,5.10
2023-05-13T22:37:27.556Z,5.45
2023-05-13T22:40:29.045Z,5.38
2023-05-13T22:43:30.674Z,5.47
2023-05-13T22:46:32.321Z,5.20
2023-05-13T22:49:33.829Z,5.50
2023-05-13T22:52:35.924Z,5.97
2023-05-13T22:55:37.349Z,6.15
2023-05-13T22:58:38.759Z,5.95
2023-05-13T23:01:40.201Z,5.60
2023-05-13T23:04:41.485Z,5.78
2023-05-13T23:07:43.570Z,6.70
2023-05-13T23:10:44.829Z,6.40
2023-05-13T23:13:46.283Z,6.13
2023-05-13T23:16:47.692Z,6.20
2023-05-13T23:19:48.998Z,5.93
2023-05-13T23:22:51.125Z,5.90
2023-05-13T23:25:52.374Z,5.85
2023-05-13T23:28:53.791Z,6.18
2023-05-13T23:31:55.503Z,5.90
2023-05-13T23:34:56.969Z,7.13
2023-05-13T23:37:59.760Z,6.60
2023-05-13T23:41:01.052Z,7.35
2023-05-13T23:44:02.545Z,6.28
2023-05-13T23:47:04.369Z,7.27
2023-05-13T23:50:07.021Z,6.97
2023-05-13T23:53:09.187Z,6.93
2023-05-13T23:56:10.459Z,6.95
2023-05-13T23:59:11.941Z,6.95
